createdAt,value
2023-09-07T00:02:15.898Z,101842.09
2023-09-07T00:04:44.604Z,101836.24
2023-09-07T00:07:12.377Z,101833.92
2023-09-07T00:09:40.051Z,101834.63
2023-09-07T00:12:07.740Z,101833.05
2023-09-07T00:14:35.410Z,101829.23
2023-09-07T00:17:04.320Z,101830.84
2023-09-07T00:19:34.369Z,101831.91
2023-09-07T00:22:02.100Z,101838.10
2023-09-07T00:24:29.689Z,101834.16
2023-09-07T00:26:57.236Z,101836.63
2023-09-07T00:29:24.866Z,101835.61
2023-09-07T00:31:52.642Z,101835.53
2023-09-07T00:34:20.337Z,101839.64
2023-09-07T00:36:48.014Z,101839.44
2023-09-07T00:39:15.576Z,101841.60
2023-09-07T00:41:46.058Z,101837.20
2023-09-07T00:44:13.752Z,101838.52
2023-09-07T00:46:41.319Z,101836.73
2023-09-07T00:49:08.927Z,101837.77
2023-09-07T00:51:36.600Z,101831.61
2023-09-07T00:54:04.359Z,101830.69
2023-09-07T00:56:32.012Z,101828.36
2023-09-07T00:59:01.539Z,101822.33
2023-09-07T01:01:29.086Z,101826.14
2023-09-07T01:03:58.703Z,101823.93
2023-09-07T01:06:31.915Z,101825.30
2023-09-07T01:09:02.162Z,101825.80
2023-09-07T01:11:37.243Z,101827.74
2023-09-07T01:14:05.505Z,101826.71
2023-09-07T01:16:37.128Z,101824.41
2023-09-07T01:19:06.051Z,101819.93
2023-09-07T01:21:36.809Z,101820.00
2023-09-07T01:24:11.194Z,101821.95
2023-09-07T01:26:41.768Z,101824.59
2023-09-07T01:29:10.637Z,101824.91
2023-09-07T01:31:39.471Z,101832.55
2023-09-07T01:34:10.300Z,101829.98
2023-09-07T01:36:39.484Z,101833.79
2023-09-07T01:39:07.319Z,101834.21
2023-09-07T01:41:35.446Z,101828.16
2023-09-07T01:44:03.052Z,101829.09
2023-09-07T01:46:33.929Z,101831.98
2023-09-07T01:49:01.569Z,101829.75
2023-09-07T01:51:29.239Z,101823.32
2023-09-07T01:53:56.822Z,101829.56
2023-09-07T01:56:24.663Z,101825.73
2023-09-07T01:58:52.544Z,101827.86
2023-09-07T02:01:24.661Z,101827.00
2023-09-07T02:03:52.568Z,101826.74
2023-09-07T02:06:20.221Z,101826.84
2023-09-07T02:08:48.181Z,101831.27
2023-09-07T02:11:16.220Z,101832.43
2023-09-07T02:13:44.497Z,101833.62
2023-09-07T02:16:12.244Z,101830.87
2023-09-07T02:18:44.757Z,101824.31
2023-09-07T02:21:12.750Z,101825.36
2023-09-07T02:23:40.510Z,101827.79
2023-09-07T02:26:08.272Z,101826.59
2023-09-07T02:28:36.381Z,101826.27
2023-09-07T02:31:04.889Z,101825.69
2023-09-07T02:33:32.818Z,101824.81
2023-09-07T02:36:00.901Z,101828.52
2023-09-07T02:38:28.769Z,101829.23
2023-09-07T02:40:56.790Z,101826.94
2023-09-07T02:43:24.623Z,101824.49
2023-09-07T02:45:52.099Z,101823.84
2023-09-07T02:48:21.934Z,101828.70
2023-09-07T02:50:54.988Z,101830.79
2023-09-07T02:53:24.031Z,101830.45
2023-09-07T02:55:51.805Z,101830.88
2023-09-07T02:58:19.586Z,101828.53
2023-09-07T03:00:48.738Z,101829.67
2023-09-07T03:03:18.016Z,101831.11
2023-09-07T03:05:46.946Z,101833.27
2023-09-07T03:08:14.844Z,101827.09
2023-09-07T03:10:44.689Z,101826.73
2023-09-07T03:13:12.355Z,101830.60
2023-09-07T03:15:40.170Z,101830.34
2023-09-07T03:18:10.820Z,101830.27
2023-09-07T03:20:39.794Z,101832.34
2023-09-07T03:23:08.153Z,101834.93
2023-09-07T03:25:36.546Z,101835.06
2023-09-07T03:28:05.138Z,101835.08
2023-09-07T03:30:34.329Z,101839.98
2023-09-07T03:33:01.898Z,101838.18
2023-09-07T03:35:30.798Z,101841.88
2023-09-07T03:37:58.358Z,101843.18
2023-09-07T03:40:26.126Z,101848.56
2023-09-07T03:42:53.762Z,101847.48
2023-09-07T03:45:21.317Z,101851.23
2023-09-07T03:47:49.346Z,101848.33
2023-09-07T03:50:17.515Z,101854.30
2023-09-07T03:52:45.133Z,101853.45
2023-09-07T03:55:13.049Z,101855.26
2023-09-07T03:57:40.819Z,101857.52
2023-09-07T04:00:09.778Z,101858.43
2023-09-07T04:02:47.704Z,101863.69
2023-09-07T04:05:15.553Z,101865.51
2023-09-07T04:07:42.997Z,101861.86
2023-09-07T04:10:10.810Z,101865.20
2023-09-07T04:12:38.342Z,101864.70
2023-09-07T04:15:06.688Z,101866.31
2023-09-07T04:17:41.979Z,101866.09
2023-09-07T04:20:10.416Z,101870.02
2023-09-07T04:22:37.927Z,101865.77
2023-09-07T04:25:05.964Z,101863.98
2023-09-07T04:27:34.876Z,101866.45
2023-09-07T04:30:04.593Z,101863.97
2023-09-07T04:32:32.657Z,101862.91
2023-09-07T04:35:00.762Z,101862.16
2023-09-07T04:37:28.333Z,101862.50
2023-09-07T04:39:56.294Z,101860.80
2023-09-07T04:42:24.289Z,101860.05
2023-09-07T04:44:51.774Z,101858.27
2023-09-07T04:47:19.525Z,101861.27
2023-09-07T04:49:53.471Z,101859.86
2023-09-07T04:52:23.306Z,101861.77
2023-09-07T04:54:51.048Z,101863.22
2023-09-07T04:57:19.445Z,101860.05
2023-09-07T04:59:47.596Z,101860.59
2023-09-07T05:02:15.318Z,101862.00
2023-09-07T05:04:42.839Z,101859.30
2023-09-07T05:07:11.336Z,101862.25
2023-09-07T05:09:38.928Z,101859.23
2023-09-07T05:12:06.830Z,101858.23
2023-09-07T05:14:34.402Z,101861.02
2023-09-07T05:17:02.369Z,101862.34
2023-09-07T05:19:30.590Z,101861.13
2023-09-07T05:21:58.110Z,101864.02
2023-09-07T05:24:26.114Z,101860.62
2023-09-07T05:26:53.624Z,101862.09
2023-09-07T05:29:22.984Z,101861.57
2023-09-07T05:31:50.724Z,101862.58
2023-09-07T05:34:19.313Z,101863.45
2023-09-07T05:36:47.135Z,101868.11
2023-09-07T05:39:15.058Z,101873.38
2023-09-07T05:41:43.441Z,101869.54
2023-09-07T05:44:11.014Z,101869.77
2023-09-07T05:46:41.286Z,101867.92
2023-09-07T05:49:10.059Z,101867.17
2023-09-07T05:51:38.047Z,101869.36
2023-09-07T05:54:05.741Z,101875.23
2023-09-07T05:56:34.810Z,101879.84
2023-09-07T05:59:02.620Z,101876.80
2023-09-07T06:01:30.203Z,101880.05
2023-09-07T06:04:01.581Z,101876.27
2023-09-07T06:06:30.338Z,101874.02
2023-09-07T06:09:06.290Z,101870.73
2023-09-07T06:11:34.664Z,101871.59
2023-09-07T06:14:21.088Z,101870.02
2023-09-07T06:16:49.023Z,101874.48
2023-09-07T06:19:16.705Z,101876.63
2023-09-07T06:21:44.369Z,101881.09
2023-09-07T06:24:12.835Z,101882.81
2023-09-07T06:26:45.993Z,101880.98
2023-09-07T06:29:13.845Z,101880.61
2023-09-07T06:31:43.104Z,101878.55
2023-09-07T06:34:11.443Z,101883.50
2023-09-07T06:36:48.015Z,101880.63
2023-09-07T06:39:19.609Z,101879.23
2023-09-07T06:41:48.780Z,101882.08
2023-09-07T06:44:19.867Z,101881.42
2023-09-07T06:46:48.145Z,101878.48
2023-09-07T06:49:18.970Z,101874.39
2023-09-07T06:51:46.608Z,101876.71
2023-09-07T06:54:16.520Z,101877.55
2023-09-07T06:56:44.505Z,101873.52
2023-09-07T06:59:12.152Z,101874.25
2023-09-07T07:01:39.856Z,101872.10
2023-09-07T07:04:09.286Z,101873.57
2023-09-07T07:06:38.298Z,101876.45
2023-09-07T07:09:09.722Z,101877.41
2023-09-07T07:11:53.650Z,101878.61
2023-09-07T07:14:28.432Z,101878.48
2023-09-07T07:16:56.247Z,101880.52
2023-09-07T07:19:25.951Z,101879.98
2023-09-07T07:22:09.908Z,101879.77
2023-09-07T07:24:37.812Z,101880.77
2023-09-07T07:27:12.286Z,101880.84
2023-09-07T07:29:41.205Z,101873.56
2023-09-07T07:32:09.062Z,101876.62
2023-09-07T07:34:40.057Z,101874.02
2023-09-07T07:37:08.257Z,101874.88
2023-09-07T07:39:36.151Z,101874.83
2023-09-07T07:42:17.220Z,101869.38
2023-09-07T07:44:45.430Z,101871.35
2023-09-07T07:47:14.020Z,101868.77
2023-09-07T07:49:41.749Z,101868.19
2023-09-07T07:52:09.385Z,101862.09
2023-09-07T07:54:37.831Z,101861.54
2023-09-07T07:57:07.698Z,101858.07
2023-09-07T07:59:36.409Z,101857.32
2023-09-07T08:02:04.556Z,101855.98
2023-09-07T08:04:35.846Z,101857.68
2023-09-07T08:07:08.837Z,101861.48
2023-09-07T08:09:37.291Z,101861.55
2023-09-07T08:12:07.828Z,101864.70
2023-09-07T08:14:36.185Z,101863.33
2023-09-07T08:17:04.714Z,101859.96
2023-09-07T08:19:33.931Z,101856.61
2023-09-07T08:22:05.094Z,101859.58
2023-09-07T08:24:37.531Z,101853.23
2023-09-07T08:27:09.373Z,101855.73
2023-09-07T08:29:42.085Z,101855.45
2023-09-07T08:32:33.370Z,101855.23
2023-09-07T08:35:02.907Z,101854.11
2023-09-07T08:37:37.625Z,101849.68
2023-09-07T08:40:13.194Z,101851.64
2023-09-07T08:42:41.294Z,101848.83
2023-09-07T08:45:10.426Z,101846.52
2023-09-07T08:47:41.022Z,101841.63
2023-09-07T08:50:10.669Z,101840.77
2023-09-07T08:52:38.493Z,101838.61
2023-09-07T08:55:06.592Z,101837.41
2023-09-07T08:57:34.173Z,101840.83
2023-09-07T09:00:02.483Z,101837.40
2023-09-07T09:02:37.316Z,101839.85
2023-09-07T09:05:17.120Z,101837.44
2023-09-07T09:07:50.685Z,101834.44
2023-09-07T09:10:19.061Z,101829.11
2023-09-07T09:12:56.210Z,101832.17
2023-09-07T09:15:25.618Z,101827.61
2023-09-07T09:17:58.247Z,101829.94
2023-09-07T09:20:28.271Z,101827.52
2023-09-07T09:22:56.523Z,101826.04
2023-09-07T09:25:24.340Z,101821.56
2023-09-07T09:27:56.139Z,101817.09
2023-09-07T09:30:23.926Z,101825.83
2023-09-07T09:32:52.453Z,101818.64
2023-09-07T09:35:20.981Z,101809.34
2023-09-07T09:37:50.213Z,101814.36
2023-09-07T09:40:18.097Z,101809.32
2023-09-07T09:42:46.280Z,101812.75
2023-09-07T09:45:14.571Z,101806.77
2023-09-07T09:47:43.373Z,101803.52
2023-09-07T09:50:14.931Z,101803.10
2023-09-07T09:52:42.673Z,101791.41
2023-09-07T09:55:14.455Z,101790.33
2023-09-07T09:57:42.348Z,101790.44
2023-09-07T10:00:30.619Z,101789.79
2023-09-07T10:04:01.601Z,101783.88
2023-09-07T10:06:31.023Z,101781.70
2023-09-07T10:09:06.312Z,101782.02
2023-09-07T10:11:35.722Z,101780.71
2023-09-07T10:14:09.950Z,101785.02
2023-09-07T10:16:48.658Z,101786.35
2023-09-07T10:19:23.581Z,101781.64
2023-09-07T10:21:52.307Z,101782.30
2023-09-07T10:24:37.198Z,101781.92
2023-09-07T10:27:08.479Z,101777.48
2023-09-07T10:29:56.363Z,101776.36
2023-09-07T10:32:28.058Z,101780.80
2023-09-07T10:34:55.605Z,101778.91
2023-09-07T10:37:29.977Z,101774.64
2023-09-07T10:39:58.962Z,101775.80
2023-09-07T10:42:26.736Z,101772.31
2023-09-07T10:44:55.531Z,101768.59
2023-09-07T10:47:23.503Z,101767.74
2023-09-07T10:49:51.097Z,101773.77
2023-09-07T10:52:18.999Z,101767.06
2023-09-07T10:54:46.695Z,101765.18
2023-09-07T10:57:19.414Z,101755.64
2023-09-07T10:59:47.651Z,101751.89
2023-09-07T11:02:17.316Z,101746.42
2023-09-07T11:04:45.350Z,101738.58
2023-09-07T11:07:13.553Z,101746.98
2023-09-07T11:09:42.753Z,101747.61
2023-09-07T11:12:14.533Z,101739.86
2023-09-07T11:14:42.281Z,101731.83
2023-09-07T11:17:10.316Z,101728.02
2023-09-07T11:19:39.168Z,101724.36
2023-09-07T11:22:19.419Z,101724.42
2023-09-07T11:24:47.544Z,101723.95
2023-09-07T11:27:18.728Z,101723.91
2023-09-07T11:29:53.686Z,101723.17
2023-09-07T11:32:23.317Z,101727.14
2023-09-07T11:34:51.960Z,101720.50
2023-09-07T11:37:23.668Z,101718.48
2023-09-07T11:39:54.711Z,101713.49
2023-09-07T11:42:25.724Z,101718.92
2023-09-07T11:44:53.364Z,101711.15
2023-09-07T11:47:21.660Z,101709.21
2023-09-07T11:49:52.474Z,101709.98
2023-09-07T11:52:20.360Z,101714.80
2023-09-07T11:54:48.357Z,101704.98
2023-09-07T11:57:17.709Z,101704.52
2023-09-07T11:59:58.630Z,101701.77
2023-09-07T12:02:31.414Z,101691.60
2023-09-07T12:05:04.913Z,101689.36
2023-09-07T12:07:32.597Z,101686.08
2023-09-07T12:10:03.698Z,101687.88
2023-09-07T12:12:31.685Z,101693.06
2023-09-07T12:14:59.264Z,101688.42
2023-09-07T12:17:27.110Z,101687.00
2023-09-07T12:19:54.901Z,101688.95
2023-09-07T12:22:22.530Z,101689.55
2023-09-07T12:25:02.231Z,101698.36
2023-09-07T12:27:52.549Z,101698.48
2023-09-07T12:30:24.021Z,101697.27
2023-09-07T12:32:53.214Z,101698.05
2023-09-07T12:35:22.133Z,101701.84
2023-09-07T12:37:52.738Z,101701.35
2023-09-07T12:40:31.393Z,101697.61
2023-09-07T12:43:04.116Z,101692.95
2023-09-07T12:45:34.463Z,101698.70
2023-09-07T12:48:07.347Z,101698.27
2023-09-07T12:50:38.119Z,101698.06
2023-09-07T12:53:11.023Z,101694.26
2023-09-07T12:55:40.760Z,101695.02
2023-09-07T12:58:08.859Z,101691.41
2023-09-07T13:00:36.669Z,101684.50
2023-09-07T13:03:06.605Z,101683.60
2023-09-07T13:05:34.689Z,101679.96
2023-09-07T13:08:03.936Z,101680.77
2023-09-07T13:10:32.027Z,101684.17
2023-09-07T13:13:00.053Z,101682.54
2023-09-07T13:15:28.078Z,101679.73
2023-09-07T13:17:59.336Z,101678.73
2023-09-07T13:20:28.230Z,101676.52
2023-09-07T13:22:56.788Z,101678.39
2023-09-07T13:25:27.567Z,101675.20
2023-09-07T13:27:55.326Z,101673.02
2023-09-07T13:30:26.238Z,101668.73
2023-09-07T13:32:54.363Z,101670.73
2023-09-07T13:35:22.280Z,101671.25
2023-09-07T13:37:50.413Z,101671.73
2023-09-07T13:40:20.904Z,101678.04
2023-09-07T13:42:51.503Z,101673.44
2023-09-07T13:45:22.512Z,101670.29
2023-09-07T13:47:50.744Z,101671.88
2023-09-07T13:50:20.312Z,101671.48
2023-09-07T13:52:49.258Z,101669.03
2023-09-07T13:55:17.727Z,101670.01
2023-09-07T13:57:46.520Z,101665.05
2023-09-07T14:00:15.028Z,101663.88
2023-09-07T14:02:43.491Z,101665.66
2023-09-07T14:05:13.850Z,101657.62
2023-09-07T14:07:41.632Z,101654.12
2023-09-07T14:10:09.380Z,101657.83
2023-09-07T14:12:37.372Z,101655.73
2023-09-07T14:15:05.393Z,101653.41
2023-09-07T14:17:33.059Z,101648.11
2023-09-07T14:20:03.615Z,101647.41
2023-09-07T14:22:38.352Z,101645.01
2023-09-07T14:25:06.371Z,101642.03
2023-09-07T14:27:34.280Z,101636.88
2023-09-07T14:30:02.099Z,101638.48
2023-09-07T14:32:29.834Z,101632.80
2023-09-07T14:34:57.627Z,101633.98
2023-09-07T14:37:26.255Z,101634.73
2023-09-07T14:40:00.610Z,101632.23
2023-09-07T14:42:28.759Z,101633.05
2023-09-07T14:44:59.058Z,101629.61
2023-09-07T14:47:30.513Z,101630.25
2023-09-07T14:49:58.262Z,101633.64
2023-09-07T14:52:26.058Z,101633.05
2023-09-07T14:54:56.734Z,101627.23
2023-09-07T14:57:27.599Z,101627.10
2023-09-07T14:59:55.189Z,101624.48
2023-09-07T15:02:23.459Z,101627.48
2023-09-07T15:04:52.444Z,101630.61
2023-09-07T15:07:21.393Z,101635.56
2023-09-07T15:09:51.005Z,101637.11
2023-09-07T15:12:18.692Z,101636.38
2023-09-07T15:14:46.315Z,101635.77
2023-09-07T15:17:13.886Z,101638.66
2023-09-07T15:19:41.494Z,101640.41
2023-09-07T15:22:09.123Z,101640.91
2023-09-07T15:24:36.670Z,101642.88
2023-09-07T15:27:11.484Z,101646.48
2023-09-07T15:29:39.535Z,101648.21
2023-09-07T15:32:07.366Z,101648.94
2023-09-07T15:34:34.945Z,101645.09
2023-09-07T15:37:04.845Z,101646.98
2023-09-07T15:39:33.239Z,101648.95
2023-09-07T15:42:00.887Z,101657.27
2023-09-07T15:44:30.014Z,101663.55
2023-09-07T15:46:57.756Z,101665.16
2023-09-07T15:49:25.256Z,101666.04
2023-09-07T15:51:52.790Z,101664.81
2023-09-07T15:54:20.461Z,101668.23
2023-09-07T15:56:48.101Z,101670.99
2023-09-07T15:59:15.668Z,101668.39
2023-09-07T16:01:43.387Z,101671.52
2023-09-07T16:04:10.958Z,101673.91
2023-09-07T16:06:38.515Z,101677.35
2023-09-07T16:09:07.052Z,101678.27
2023-09-07T16:11:34.720Z,101682.23
2023-09-07T16:14:02.394Z,101683.93
2023-09-07T16:16:29.970Z,101683.87
2023-09-07T16:18:57.577Z,101690.09
2023-09-07T16:21:25.106Z,101697.65
2023-09-07T16:23:52.696Z,101693.44
2023-09-07T16:26:21.812Z,101691.80
2023-09-07T16:28:49.859Z,101696.02
2023-09-07T16:31:17.404Z,101704.92
2023-09-07T16:33:44.928Z,101705.84
2023-09-07T16:36:12.724Z,101709.98
2023-09-07T16:38:40.281Z,101715.56
2023-09-07T16:41:08.009Z,101716.91
2023-09-07T16:43:35.705Z,101725.39
2023-09-07T16:46:05.816Z,101726.16
2023-09-07T16:48:33.797Z,101730.63
2023-09-07T16:51:02.666Z,101737.14
2023-09-07T16:53:31.719Z,101739.16
2023-09-07T16:55:59.466Z,101741.27
2023-09-07T16:58:41.548Z,101750.44
2023-09-07T17:01:14.710Z,101756.33
2023-09-07T17:03:42.686Z,101761.73
2023-09-07T17:06:10.580Z,101762.29
2023-09-07T17:08:38.270Z,101767.72
2023-09-07T17:11:07.381Z,101768.67
2023-09-07T17:13:36.313Z,101771.76
2023-09-07T17:16:05.876Z,101774.30
2023-09-07T17:18:33.764Z,101777.52
2023-09-07T17:21:06.787Z,101787.41
2023-09-07T17:23:34.461Z,101789.08
2023-09-07T17:26:04.076Z,101794.43
2023-09-07T17:28:32.666Z,101794.39
2023-09-07T17:31:00.646Z,101797.30
2023-09-07T17:33:28.446Z,101798.23
2023-09-07T17:35:57.026Z,101805.58
2023-09-07T17:38:24.820Z,101808.88
2023-09-07T17:40:52.546Z,101810.37
2023-09-07T17:43:20.114Z,101811.55
2023-09-07T17:45:47.761Z,101812.41
2023-09-07T17:48:15.491Z,101814.64
2023-09-07T17:50:43.211Z,101819.77
2023-09-07T17:53:10.925Z,101818.20
2023-09-07T17:55:39.855Z,101825.52
2023-09-07T17:58:07.500Z,101833.71
2023-09-07T18:00:35.153Z,101832.20
2023-09-07T18:03:02.857Z,101834.07
2023-09-07T18:05:30.558Z,101837.33
2023-09-07T18:07:58.188Z,101841.40
2023-09-07T18:10:26.353Z,101839.32
2023-09-07T18:12:54.077Z,101840.80
2023-09-07T18:15:21.676Z,101841.08
2023-09-07T18:17:49.470Z,101843.90
2023-09-07T18:20:20.332Z,101841.55
2023-09-07T18:22:47.945Z,101845.31
2023-09-07T18:25:15.509Z,101844.75
2023-09-07T18:27:43.119Z,101846.50
2023-09-07T18:30:11.182Z,101848.39
2023-09-07T18:32:38.724Z,101850.80
2023-09-07T18:35:07.863Z,101851.74
2023-09-07T18:37:36.838Z,101849.48
2023-09-07T18:40:05.860Z,101854.17
2023-09-07T18:42:35.526Z,101854.92
2023-09-07T18:45:04.871Z,101856.46
2023-09-07T18:47:33.416Z,101856.70
2023-09-07T18:50:01.215Z,101860.56
2023-09-07T18:52:28.842Z,101863.44
2023-09-07T18:54:56.644Z,101858.72
2023-09-07T18:57:24.250Z,101860.32
2023-09-07T18:59:53.784Z,101864.04
2023-09-07T19:02:21.465Z,101861.10
2023-09-07T19:04:50.920Z,101864.63
2023-09-07T19:07:22.596Z,101870.95
2023-09-07T19:09:50.467Z,101871.86
2023-09-07T19:12:18.312Z,101873.66
2023-09-07T19:14:46.845Z,101876.86
2023-09-07T19:17:14.502Z,101876.98
2023-09-07T19:19:42.044Z,101877.49
2023-09-07T19:22:09.701Z,101879.36
2023-09-07T19:24:37.990Z,101881.46
2023-09-07T19:27:05.883Z,101878.90
2023-09-07T19:29:33.550Z,101883.14
2023-09-07T19:32:02.335Z,101882.65
2023-09-07T19:34:29.973Z,101884.28
2023-09-07T19:36:57.503Z,101883.56
2023-09-07T19:39:25.088Z,101880.60
2023-09-07T19:41:52.863Z,101882.70
2023-09-07T19:44:22.259Z,101888.45
2023-09-07T19:46:49.929Z,101891.27
2023-09-07T19:49:17.985Z,101895.41
2023-09-07T19:51:45.517Z,101898.84
2023-09-07T19:54:13.010Z,101899.70
2023-09-07T19:56:43.238Z,101897.41
2023-09-07T19:59:12.159Z,101899.91
2023-09-07T20:01:59.877Z,101899.30
2023-09-07T20:04:27.553Z,101903.76
2023-09-07T20:06:55.931Z,101900.67
2023-09-07T20:09:26.023Z,101897.55
2023-09-07T20:11:54.436Z,101900.74
2023-09-07T20:14:22.175Z,101901.67
2023-09-07T20:16:49.803Z,101899.78
2023-09-07T20:19:17.624Z,101903.42
2023-09-07T20:21:45.345Z,101904.13
2023-09-07T20:24:13.590Z,101906.05
2023-09-07T20:26:41.184Z,101902.79
2023-09-07T20:29:10.142Z,101903.95
2023-09-07T20:31:38.112Z,101902.64
2023-09-07T20:34:05.689Z,101903.94
2023-09-07T20:36:33.233Z,101904.88
2023-09-07T20:39:00.860Z,101907.08
2023-09-07T20:41:28.566Z,101902.66
2023-09-07T20:43:56.130Z,101904.79
2023-09-07T20:46:23.678Z,101905.36
2023-09-07T20:48:51.344Z,101904.02
2023-09-07T20:51:18.976Z,101905.69
2023-09-07T20:53:46.658Z,101910.11
2023-09-07T20:56:14.248Z,101906.83
2023-09-07T20:58:41.956Z,101913.34
2023-09-07T21:01:09.632Z,101913.19
2023-09-07T21:03:37.301Z,101912.31
2023-09-07T21:06:04.983Z,101915.35
2023-09-07T21:08:32.943Z,101919.27
2023-09-07T21:11:00.892Z,101916.48
2023-09-07T21:13:28.460Z,101921.89
2023-09-07T21:15:55.993Z,101926.98
2023-09-07T21:18:23.670Z,101931.98
2023-09-07T21:20:51.267Z,101932.27
2023-09-07T21:23:18.803Z,101936.89
2023-09-07T21:25:46.404Z,101933.42
2023-09-07T21:28:14.010Z,101937.37
2023-09-07T21:30:41.619Z,101935.32
2023-09-07T21:33:10.929Z,101945.59
2023-09-07T21:35:38.702Z,101945.11
2023-09-07T21:38:06.236Z,101949.23
2023-09-07T21:40:33.884Z,101948.58
2023-09-07T21:43:01.644Z,101943.38
2023-09-07T21:45:29.228Z,101950.98
2023-09-07T21:47:57.343Z,101953.10
2023-09-07T21:50:26.384Z,101954.36
2023-09-07T21:52:54.691Z,101957.02
2023-09-07T21:55:22.414Z,101961.27
2023-09-07T21:57:50.395Z,101960.71
2023-09-07T22:00:18.137Z,101963.92
2023-09-07T22:02:45.838Z,101971.69
2023-09-07T22:05:13.695Z,101973.84
2023-09-07T22:07:41.324Z,101971.89
2023-09-07T22:10:09.143Z,101970.97
2023-09-07T22:12:36.766Z,101976.08
2023-09-07T22:15:05.821Z,101970.86
2023-09-07T22:17:33.608Z,101974.52
2023-09-07T22:20:01.597Z,101969.60
2023-09-07T22:22:29.811Z,101969.42
2023-09-07T22:24:57.446Z,101968.75
2023-09-07T22:27:26.418Z,101964.61
2023-09-07T22:29:54.571Z,101962.65
2023-09-07T22:32:22.270Z,101962.58
2023-09-07T22:34:50.219Z,101964.30
2023-09-07T22:37:17.796Z,101964.93
2023-09-07T22:39:45.759Z,101968.10
2023-09-07T22:42:13.378Z,101965.31
2023-09-07T22:44:40.936Z,101968.04
2023-09-07T22:47:09.441Z,101969.41
2023-09-07T22:49:36.902Z,101974.09
2023-09-07T22:52:04.697Z,101971.73
2023-09-07T22:54:32.598Z,101973.73
2023-09-07T22:57:00.289Z,101974.19
2023-09-07T22:59:28.138Z,101980.80
2023-09-07T23:01:55.760Z,101981.73
2023-09-07T23:04:23.553Z,101984.44
2023-09-07T23:06:51.348Z,101985.98
2023-09-07T23:09:21.021Z,101990.33
2023-09-07T23:11:48.721Z,101993.44
2023-09-07T23:14:16.419Z,101993.20
2023-09-07T23:16:44.122Z,101996.08
2023-09-07T23:19:11.811Z,101996.68
2023-09-07T23:21:40.067Z,101998.00
2023-09-07T23:24:07.711Z,102001.25
2023-09-07T23:26:35.273Z,101999.81
2023-09-07T23:29:02.829Z,101999.52
2023-09-07T23:31:30.473Z,101997.30
2023-09-07T23:33:57.991Z,101999.66
2023-09-07T23:36:25.686Z,101998.55
2023-09-07T23:38:53.419Z,102003.02
2023-09-07T23:41:21.123Z,102007.29
2023-09-07T23:43:48.881Z,102003.60
2023-09-07T23:46:16.778Z,102008.14
2023-09-07T23:48:44.455Z,102007.20
2023-09-07T23:51:12.114Z,102004.18
2023-09-07T23:53:39.879Z,102007.20
2023-09-07T23:56:07.455Z,102005.72
2023-09-07T23:58:35.272Z,102007.30
